Time;durP1;ratioP1;P1;durP2;ratioP2;P2;SDS_P1;SDS_P2;PMS_P1;PMS_P2;Temp;Humidity;BMP_temperature;BMP_pressure;BME280_temperature;BME280_humidity;BME280_pressure;Samples;Min_cycle;Max_cycle;Signal;HPM_P1;HPM_P2
2022/10/19 00:02:08;;;;;;;1.30;1.20;;;;;;;;;;5026982;28;20658;-54
2022/10/19 00:04:35;;;;;;;1.35;1.25;;;;;;;;;;5030241;28;20213;-52
2022/10/19 00:07:02;;;;;;;1.30;1.20;;;;;;;;;;5024106;28;20271;-54
2022/10/19 00:09:28;;;;;;;2.20;1.23;;;;;;;;;;5030316;28;20274;-51
2022/10/19 00:11:54;;;;;;;1.67;1.40;;;;;;;;;;5028883;28;20255;-53
2022/10/19 00:14:22;;;;;;;1.37;1.27;;;;;;;;;;5028323;28;20286;-54
2022/10/19 00:16:50;;;;;;;1.60;1.47;;;;;;;;;;5028977;28;20229;-52
2022/10/19 00:19:20;;;;;;;1.40;1.27;;;;;;;;;;5029429;28;20309;-55
2022/10/19 00:21:46;;;;;;;1.50;1.30;;;;;;;;;;5023281;28;20643;-52
2022/10/19 00:24:13;;;;;;;1.43;1.30;;;;;;;;;;5029581;28;20278;-55
2022/10/19 00:26:39;;;;;;;1.53;1.37;;;;;;;;;;5011803;28;20290;-52
2022/10/19 00:29:06;;;;;;;1.57;1.33;;;;;;;;;;5029573;28;20283;-54
2022/10/19 00:31:33;;;;;;;2.10;1.70;;;;;;;;;;5027980;28;20219;-54
2022/10/19 00:33:59;;;;;;;1.40;1.30;;;;;;;;;;5029511;28;20647;-52
2022/10/19 00:36:28;;;;;;;1.20;1.10;;;;;;;;;;5026107;28;20274;-55
2022/10/19 00:38:55;;;;;;;1.40;1.20;;;;;;;;;;5029563;28;20278;-54
2022/10/19 00:41:24;;;;;;;1.20;1.10;;;;;;;;;;5028962;28;20302;-55
2022/10/19 00:43:55;;;;;;;1.40;1.30;;;;;;;;;;5028275;28;20274;-55
2022/10/19 00:46:21;;;;;;;1.27;1.17;;;;;;;;;;5011502;28;20274;-51
2022/10/19 00:48:48;;;;;;;1.73;1.17;;;;;;;;;;5029237;28;20726;-55
2022/10/19 00:51:20;;;;;;;1.40;1.27;;;;;;;;;;5011582;28;20659;-54
2022/10/19 00:53:46;;;;;;;1.30;1.10;;;;;;;;;;5027361;28;20294;-58
2022/10/19 00:56:14;;;;;;;2.07;1.50;;;;;;;;;;5029657;28;20282;-56
2022/10/19 00:58:42;;;;;;;1.47;1.37;;;;;;;;;;5013704;28;20219;-54
2022/10/19 01:01:10;;;;;;;1.50;1.27;;;;;;;;;;5015185;28;20203;-53
2022/10/19 01:03:38;;;;;;;1.60;1.30;;;;;;;;;;5015399;28;20591;-51
2022/10/19 01:06:05;;;;;;;2.00;1.57;;;;;;;;;;5033679;28;20286;-52
2022/10/19 01:08:31;;;;;;;1.60;1.40;;;;;;;;;;5015768;28;20283;-52
2022/10/19 01:11:16;;;;;;;1.63;1.40;;;;;;;;;;5029516;28;20242;-51
2022/10/19 01:13:57;;;;;;;1.77;1.50;;;;;;;;;;5015376;28;20398;-54
2022/10/19 01:16:29;;;;;;;1.60;1.37;;;;;;;;;;4998285;28;20227;-52
2022/10/19 01:18:59;;;;;;;1.30;1.20;;;;;;;;;;5033058;28;20659;-53
2022/10/19 01:21:45;;;;;;;1.47;1.37;;;;;;;;;;5030498;28;20685;-52
2022/10/19 01:24:31;;;;;;;1.50;1.30;;;;;;;;;;5014496;28;20219;-54
2022/10/19 01:27:10;;;;;;;2.03;1.60;;;;;;;;;;5030704;28;20196;-55
2022/10/19 01:29:56;;;;;;;1.40;1.30;;;;;;;;;;5014245;28;20282;-52
2022/10/19 01:32:37;;;;;;;2.10;1.60;;;;;;;;;;5014023;28;20318;-54
2022/10/19 01:35:34;;;;;;;1.40;1.20;;;;;;;;;;5009120;28;20242;-56
2022/10/19 01:38:09;;;;;;;1.30;1.20;;;;;;;;;;5016446;28;20221;-56
2022/10/19 01:40:44;;;;;;;2.17;1.40;;;;;;;;;;5030224;28;20222;-56
2022/10/19 01:43:35;;;;;;;1.50;1.40;;;;;;;;;;5026654;28;20306;-52
2022/10/19 01:46:18;;;;;;;1.50;1.30;;;;;;;;;;5027318;28;20282;-52
2022/10/19 01:48:59;;;;;;;1.70;1.30;;;;;;;;;;5015064;28;20286;-52
2022/10/19 01:51:29;;;;;;;1.70;1.60;;;;;;;;;;5030897;28;20202;-51
2022/10/19 01:53:57;;;;;;;1.30;1.20;;;;;;;;;;5006841;28;20203;-52
2022/10/19 01:56:26;;;;;;;1.80;1.50;;;;;;;;;;5014539;28;20202;-55
2022/10/19 01:58:55;;;;;;;1.37;1.27;;;;;;;;;;5024846;28;20649;-53
2022/10/19 02:01:23;;;;;;;2.00;1.60;;;;;;;;;;5029157;28;20893;-52
2022/10/19 02:03:50;;;;;;;1.63;1.30;;;;;;;;;;5023503;28;20294;-53
2022/10/19 02:06:17;;;;;;;2.30;1.60;;;;;;;;;;5030488;28;20283;-55
2022/10/19 02:08:46;;;;;;;1.47;1.30;;;;;;;;;;5013077;28;20718;-52
2022/10/19 02:11:13;;;;;;;1.90;1.63;;;;;;;;;;5009511;28;20315;-53
2022/10/19 02:13:40;;;;;;;2.00;1.80;;;;;;;;;;5028466;28;20290;-52
2022/10/19 02:16:09;;;;;;;1.50;1.40;;;;;;;;;;5013464;28;20278;-56
2022/10/19 02:18:40;;;;;;;1.70;1.43;;;;;;;;;;5012644;28;20310;-52
2022/10/19 02:21:06;;;;;;;1.40;1.30;;;;;;;;;;5008510;28;20286;-51
2022/10/19 02:23:33;;;;;;;1.87;1.37;;;;;;;;;;5031182;28;20222;-54
2022/10/19 02:25:59;;;;;;;1.63;1.30;;;;;;;;;;5030535;28;20849;-55
2022/10/19 02:28:27;;;;;;;1.47;1.20;;;;;;;;;;5031888;28;20215;-54
2022/10/19 02:30:53;;;;;;;1.70;1.40;;;;;;;;;;5011560;28;20222;-54
2022/10/19 02:33:19;;;;;;;1.63;1.47;;;;;;;;;;5012458;28;20221;-52
2022/10/19 02:35:46;;;;;;;1.50;1.37;;;;;;;;;;5012221;28;20296;-56
2022/10/19 02:38:17;;;;;;;1.33;1.10;;;;;;;;;;5013596;28;20310;-52
2022/10/19 02:40:48;;;;;;;1.70;1.60;;;;;;;;;;5011691;28;20286;-54
2022/10/19 02:43:18;;;;;;;2.43;1.50;;;;;;;;;;5013726;28;20310;-56
2022/10/19 02:45:53;;;;;;;1.37;1.27;;;;;;;;;;5008061;28;20273;-54
2022/10/19 02:48:22;;;;;;;1.40;1.30;;;;;;;;;;5011897;28;20290;-51
2022/10/19 02:50:48;;;;;;;1.50;1.40;;;;;;;;;;5013825;28;20303;-55
2022/10/19 02:53:15;;;;;;;1.43;1.23;;;;;;;;;;5029831;28;20219;-56
2022/10/19 02:55:41;;;;;;;1.40;1.30;;;;;;;;;;5028730;28;20555;-58
2022/10/19 02:58:08;;;;;;;1.73;1.40;;;;;;;;;;5030417;28;20327;-55
2022/10/19 03:00:34;;;;;;;1.47;1.33;;;;;;;;;;5031390;28;20825;-56
2022/10/19 03:03:01;;;;;;;1.63;1.40;;;;;;;;;;5028968;28;20311;-54
2022/10/19 03:05:28;;;;;;;1.40;1.30;;;;;;;;;;5030311;28;20282;-55
2022/10/19 03:07:54;;;;;;;1.73;1.50;;;;;;;;;;5029724;28;20294;-55
2022/10/19 03:10:21;;;;;;;1.63;1.47;;;;;;;;;;5030530;28;20278;-54
2022/10/19 03:12:47;;;;;;;1.50;1.40;;;;;;;;;;5022699;28;20661;-55
2022/10/19 03:15:15;;;;;;;1.70;1.40;;;;;;;;;;5030823;28;20286;-52
2022/10/19 03:17:41;;;;;;;1.43;1.30;;;;;;;;;;5028266;28;20306;-55
2022/10/19 03:20:09;;;;;;;1.70;1.50;;;;;;;;;;5027452;28;20291;-54
2022/10/19 03:22:35;;;;;;;1.67;1.57;;;;;;;;;;5026816;28;20269;-52
2022/10/19 03:25:02;;;;;;;1.47;1.27;;;;;;;;;;5028528;28;20286;-55
2022/10/19 03:27:29;;;;;;;1.50;1.40;;;;;;;;;;5029058;28;20291;-55
2022/10/19 03:29:55;;;;;;;1.60;1.50;;;;;;;;;;5028142;28;20287;-55
2022/10/19 03:32:21;;;;;;;1.90;1.50;;;;;;;;;;5029273;28;20254;-55
2022/10/19 03:34:47;;;;;;;1.90;1.50;;;;;;;;;;5029861;28;20286;-53
2022/10/19 03:37:14;;;;;;;1.43;1.33;;;;;;;;;;5025794;28;20398;-55
2022/10/19 03:39:40;;;;;;;1.60;1.40;;;;;;;;;;5030531;28;20279;-55
2022/10/19 03:42:06;;;;;;;1.60;1.40;;;;;;;;;;5029006;28;20734;-55
2022/10/19 03:44:33;;;;;;;1.63;1.50;;;;;;;;;;5028243;28;20227;-56
2022/10/19 03:46:59;;;;;;;1.60;1.50;;;;;;;;;;5029708;28;20286;-57
2022/10/19 03:49:25;;;;;;;1.30;1.20;;;;;;;;;;5030285;28;20219;-56
2022/10/19 03:51:52;;;;;;;2.10;1.60;;;;;;;;;;5026997;28;20216;-57
2022/10/19 03:54:18;;;;;;;1.60;1.50;;;;;;;;;;5030288;28;20299;-56
2022/10/19 03:56:50;;;;;;;1.40;1.20;;;;;;;;;;5029438;28;20683;-55
2022/10/19 03:59:16;;;;;;;1.93;1.57;;;;;;;;;;5028360;28;20306;-54
2022/10/19 04:01:44;;;;;;;2.20;1.60;;;;;;;;;;5027656;28;20221;-55
2022/10/19 04:04:17;;;;;;;2.13;1.73;;;;;;;;;;5029522;28;20306;-52
2022/10/19 04:06:46;;;;;;;1.80;1.57;;;;;;;;;;5029919;28;20207;-55
2022/10/19 04:09:17;;;;;;;1.90;1.57;;;;;;;;;;5029575;28;20283;-55
2022/10/19 04:11:44;;;;;;;1.50;1.40;;;;;;;;;;5024392;28;20237;-56
2022/10/19 04:14:11;;;;;;;2.23;1.87;;;;;;;;;;5028247;28;20731;-54
2022/10/19 04:16:52;;;;;;;1.50;1.40;;;;;;;;;;5029273;28;20195;-55
2022/10/19 04:19:18;;;;;;;1.90;1.70;;;;;;;;;;5023445;28;20303;-55
2022/10/19 04:21:47;;;;;;;1.77;1.50;;;;;;;;;;5027165;28;20690;-57
2022/10/19 04:24:15;;;;;;;1.50;1.37;;;;;;;;;;5029318;28;20742;-54
2022/10/19 04:26:44;;;;;;;1.50;1.30;;;;;;;;;;5026124;28;20755;-54
2022/10/19 04:29:10;;;;;;;1.70;1.60;;;;;;;;;;5026114;28;20286;-56
2022/10/19 04:31:38;;;;;;;2.03;1.60;;;;;;;;;;5031381;28;20225;-57
2022/10/19 04:34:05;;;;;;;1.57;1.47;;;;;;;;;;5007760;28;20725;-54
2022/10/19 04:36:31;;;;;;;1.40;1.30;;;;;;;;;;5026422;28;20286;-55
2022/10/19 04:38:58;;;;;;;2.33;1.77;;;;;;;;;;5027125;28;20302;-55
2022/10/19 04:41:24;;;;;;;1.50;1.33;;;;;;;;;;5029648;28;20286;-55
2022/10/19 04:43:56;;;;;;;1.50;1.40;;;;;;;;;;5009623;28;20211;-57
2022/10/19 04:46:23;;;;;;;1.63;1.50;;;;;;;;;;5033109;28;20702;-53
2022/10/19 04:48:50;;;;;;;1.50;1.40;;;;;;;;;;5028133;28;20278;-55
2022/10/19 04:51:18;;;;;;;1.30;1.20;;;;;;;;;;5028059;28;20279;-55
2022/10/19 04:53:44;;;;;;;1.77;1.50;;;;;;;;;;5027470;28;20198;-53
2022/10/19 04:56:20;;;;;;;1.50;1.30;;;;;;;;;;5029501;28;20287;-56
2022/10/19 04:58:46;;;;;;;2.03;1.50;;;;;;;;;;5028392;28;20220;-53
2022/10/19 05:01:16;;;;;;;1.80;1.50;;;;;;;;;;5026601;28;20227;-54
2022/10/19 05:03:42;;;;;;;1.40;1.30;;;;;;;;;;5028875;28;20206;-56
2022/10/19 05:06:11;;;;;;;1.40;1.30;;;;;;;;;;5029467;28;20380;-55
2022/10/19 05:08:37;;;;;;;1.50;1.40;;;;;;;;;;5028601;28;20270;-57
2022/10/19 05:11:09;;;;;;;1.50;1.30;;;;;;;;;;5026135;28;20192;-55
2022/10/19 05:13:36;;;;;;;1.97;1.70;;;;;;;;;;5028225;28;20230;-56
2022/10/19 05:16:03;;;;;;;1.90;1.60;;;;;;;;;;5029838;28;20196;-55
2022/10/19 05:18:30;;;;;;;1.40;1.30;;;;;;;;;;5029009;28;20220;-57
2022/10/19 05:21:04;;;;;;;1.43;1.30;;;;;;;;;;5025644;28;20646;-54
2022/10/19 05:23:31;;;;;;;1.57;1.40;;;;;;;;;;5029351;28;20247;-55
2022/10/19 05:26:05;;;;;;;1.70;1.60;;;;;;;;;;5028063;28;20620;-54
2022/10/19 05:28:32;;;;;;;1.60;1.50;;;;;;;;;;5024186;28;20198;-55
2022/10/19 05:31:09;;;;;;;1.83;1.60;;;;;;;;;;5028323;28;20191;-55
2022/10/19 05:33:36;;;;;;;1.70;1.50;;;;;;;;;;5028112;28;20242;-52
2022/10/19 05:36:38;;;;;;;1.40;1.30;;;;;;;;;;5035092;28;20287;-55
2022/10/19 05:39:15;;;;;;;1.73;1.50;;;;;;;;;;5023231;28;20306;-56
2022/10/19 05:41:43;;;;;;;1.50;1.40;;;;;;;;;;5010783;28;20765;-55
2022/10/19 05:44:14;;;;;;;1.83;1.50;;;;;;;;;;5028202;28;20283;-55
2022/10/19 05:46:41;;;;;;;1.53;1.40;;;;;;;;;;5029986;28;20642;-54
2022/10/19 05:49:10;;;;;;;1.60;1.40;;;;;;;;;;5033033;28;20294;-53
2022/10/19 05:51:36;;;;;;;1.60;1.50;;;;;;;;;;5031987;28;20783;-52
2022/10/19 05:54:02;;;;;;;1.47;1.37;;;;;;;;;;5030696;28;20287;-54
2022/10/19 05:56:30;;;;;;;1.60;1.50;;;;;;;;;;5030193;28;20294;-54
2022/10/19 05:58:59;;;;;;;1.57;1.30;;;;;;;;;;5031372;28;20302;-54
2022/10/19 06:01:27;;;;;;;1.90;1.37;;;;;;;;;;5014589;28;20274;-53
2022/10/19 06:03:54;;;;;;;1.40;1.30;;;;;;;;;;5031413;28;20218;-53
2022/10/19 06:06:21;;;;;;;1.73;1.30;;;;;;;;;;5028143;28;20283;-55
2022/10/19 06:08:48;;;;;;;2.10;1.60;;;;;;;;;;5031153;28;20639;-55
2022/10/19 06:11:17;;;;;;;1.83;1.40;;;;;;;;;;5032206;28;20282;-50
2022/10/19 06:13:45;;;;;;;1.60;1.50;;;;;;;;;;5029443;28;20266;-53
2022/10/19 06:16:13;;;;;;;2.00;1.60;;;;;;;;;;5031893;28;20286;-54
2022/10/19 06:18:40;;;;;;;1.27;1.17;;;;;;;;;;5032243;28;20310;-52
2022/10/19 06:21:10;;;;;;;1.30;1.20;;;;;;;;;;5032390;28;20225;-51
2022/10/19 06:23:37;;;;;;;1.40;1.30;;;;;;;;;;5029316;28;20303;-53
2022/10/19 06:26:06;;;;;;;1.70;1.60;;;;;;;;;;5024809;28;20196;-52
2022/10/19 06:28:33;;;;;;;1.60;1.50;;;;;;;;;;5032188;28;20278;-52
2022/10/19 06:30:59;;;;;;;2.20;1.63;;;;;;;;;;5029697;28;20278;-52
2022/10/19 06:33:26;;;;;;;1.60;1.50;;;;;;;;;;5031368;28;20215;-52
2022/10/19 06:35:52;;;;;;;1.63;1.50;;;;;;;;;;5031959;28;20291;-51
2022/10/19 06:38:19;;;;;;;1.37;1.27;;;;;;;;;;5032117;28;20278;-51
2022/10/19 06:40:45;;;;;;;2.20;1.73;;;;;;;;;;5025993;28;20275;-54
2022/10/19 06:43:11;;;;;;;1.33;1.20;;;;;;;;;;5031505;28;20306;-52
2022/10/19 06:45:38;;;;;;;1.53;1.43;;;;;;;;;;5031985;28;20279;-52
2022/10/19 06:48:05;;;;;;;1.50;1.40;;;;;;;;;;5024575;28;20227;-55
2022/10/19 06:50:34;;;;;;;1.50;1.40;;;;;;;;;;5024634;28;20201;-52
2022/10/19 06:53:00;;;;;;;1.70;1.50;;;;;;;;;;5030872;28;20310;-51
2022/10/19 06:55:26;;;;;;;1.70;1.20;;;;;;;;;;5031522;28;20582;-54
2022/10/19 06:57:53;;;;;;;1.40;1.30;;;;;;;;;;5031468;28;20722;-52
2022/10/19 07:00:19;;;;;;;1.70;1.40;;;;;;;;;;5029064;28;20262;-51
2022/10/19 07:02:45;;;;;;;1.77;1.60;;;;;;;;;;5031685;28;20273;-53
2022/10/19 07:05:12;;;;;;;1.70;1.60;;;;;;;;;;5031490;28;20738;-51
2022/10/19 07:07:38;;;;;;;1.60;1.50;;;;;;;;;;5030734;28;20283;-51
2022/10/19 07:10:05;;;;;;;1.60;1.50;;;;;;;;;;5026171;28;20192;-51
2022/10/19 07:12:31;;;;;;;2.17;1.50;;;;;;;;;;5032213;28;20203;-51
2022/10/19 07:14:57;;;;;;;1.67;1.57;;;;;;;;;;5031579;28;20286;-51
2022/10/19 07:17:24;;;;;;;1.47;1.37;;;;;;;;;;5031687;28;20287;-51
2022/10/19 07:19:50;;;;;;;2.20;1.80;;;;;;;;;;5027191;28;20215;-52
2022/10/19 07:22:16;;;;;;;1.67;1.50;;;;;;;;;;5031257;28;20318;-51
2022/10/19 07:24:51;;;;;;;1.83;1.60;;;;;;;;;;5014532;28;20229;-51
2022/10/19 07:27:17;;;;;;;1.40;1.30;;;;;;;;;;5031544;28;20299;-51
2022/10/19 07:29:43;;;;;;;1.70;1.60;;;;;;;;;;5026945;28;20282;-56
2022/10/19 07:32:10;;;;;;;1.87;1.50;;;;;;;;;;5030691;28;20298;-53
2022/10/19 07:34:36;;;;;;;1.50;1.30;;;;;;;;;;5031030;28;20282;-52
2022/10/19 07:37:02;;;;;;;3.00;2.33;;;;;;;;;;5029466;28;20287;-51
2022/10/19 07:39:29;;;;;;;3.07;2.00;;;;;;;;;;5026448;28;20248;-51
2022/10/19 07:41:55;;;;;;;5.03;2.70;;;;;;;;;;5029568;28;21093;-50
2022/10/19 07:44:21;;;;;;;4.27;2.63;;;;;;;;;;5031071;28;20283;-52
2022/10/19 07:46:48;;;;;;;2.70;2.00;;;;;;;;;;5030220;28;20549;-52
2022/10/19 07:49:15;;;;;;;2.20;1.85;;;;;;;;;;5025215;28;20208;-55
2022/10/19 07:51:41;;;;;;;3.25;2.30;;;;;;;;;;5030790;28;20215;-53
2022/10/19 07:54:08;;;;;;;5.23;3.17;;;;;;;;;;5023544;28;20632;-51
2022/10/19 07:56:35;;;;;;;2.90;2.40;;;;;;;;;;5028344;28;20242;-54
2022/10/19 07:59:03;;;;;;;3.65;2.58;;;;;;;;;;5029598;28;20695;-52
2022/10/19 08:01:36;;;;;;;3.37;1.90;;;;;;;;;;5030318;28;20231;-51
2022/10/19 08:04:03;;;;;;;4.80;2.60;;;;;;;;;;5029237;28;20208;-51
2022/10/19 08:06:49;;;;;;;3.15;2.30;;;;;;;;;;5029933;28;20710;-51
2022/10/19 08:09:15;;;;;;;3.37;2.20;;;;;;;;;;5029992;28;20310;-54
2022/10/19 08:12:03;;;;;;;5.63;3.45;;;;;;;;;;5028553;28;20226;-52
2022/10/19 08:14:29;;;;;;;2.60;1.90;;;;;;;;;;5030381;28;20207;-52
2022/10/19 08:16:56;;;;;;;1.90;1.70;;;;;;;;;;5012356;28;20997;-54
2022/10/19 08:19:23;;;;;;;3.22;2.47;;;;;;;;;;5030155;28;20496;-51
2022/10/19 08:21:49;;;;;;;4.63;3.08;;;;;;;;;;5028570;28;20302;-52
2022/10/19 08:24:16;;;;;;;5.65;2.97;;;;;;;;;;5012742;28;20191;-51
2022/10/19 08:26:43;;;;;;;4.40;2.85;;;;;;;;;;5030274;28;20384;-51
2022/10/19 08:29:12;;;;;;;5.20;3.10;;;;;;;;;;5030631;28;20227;-53
2022/10/19 08:31:39;;;;;;;3.30;2.38;;;;;;;;;;5028477;28;20295;-51
2022/10/19 08:34:05;;;;;;;3.88;2.40;;;;;;;;;;5030873;28;20261;-53
2022/10/19 08:36:34;;;;;;;1.90;1.50;;;;;;;;;;5030571;28;20317;-52
2022/10/19 08:39:01;;;;;;;3.65;2.00;;;;;;;;;;5030222;28;20689;-51
2022/10/19 08:41:40;;;;;;;3.25;2.28;;;;;;;;;;5030225;28;20282;-51
2022/10/19 08:44:29;;;;;;;1.70;1.50;;;;;;;;;;5029188;28;20231;-50
2022/10/19 08:47:17;;;;;;;4.88;2.28;;;;;;;;;;5012270;28;20738;-53
2022/10/19 08:49:48;;;;;;;4.00;2.60;;;;;;;;;;5027317;28;20249;-51
2022/10/19 08:52:19;;;;;;;3.03;2.10;;;;;;;;;;5013288;28;20270;-52
2022/10/19 08:54:50;;;;;;;1.92;1.70;;;;;;;;;;5012607;28;20286;-51
2022/10/19 08:57:27;;;;;;;1.77;1.33;;;;;;;;;;5006815;28;20278;-53
2022/10/19 09:00:16;;;;;;;2.78;2.00;;;;;;;;;;5024022;28;20669;-51
2022/10/19 09:03:00;;;;;;;2.30;1.65;;;;;;;;;;5012160;28;20699;-55
2022/10/19 09:05:39;;;;;;;3.50;2.05;;;;;;;;;;5025071;28;20288;-55
2022/10/19 09:08:08;;;;;;;1.58;1.45;;;;;;;;;;5025234;28;20223;-55
2022/10/19 09:10:41;;;;;;;1.58;1.45;;;;;;;;;;5029784;28;20659;-55
2022/10/19 09:13:11;;;;;;;1.67;1.50;;;;;;;;;;5029167;28;20262;-53
2022/10/19 09:15:41;;;;;;;1.48;1.38;;;;;;;;;;5029098;28;20283;-54
2022/10/19 09:18:13;;;;;;;1.40;1.30;;;;;;;;;;5012706;28;20286;-54
2022/10/19 09:20:44;;;;;;;2.03;1.40;;;;;;;;;;5033550;28;20238;-59
2022/10/19 09:23:26;;;;;;;1.73;1.20;;;;;;;;;;5032441;28;20294;-58
2022/10/19 09:25:53;;;;;;;1.30;1.20;;;;;;;;;;5014955;28;20274;-53
2022/10/19 09:28:57;;;;;;;1.33;1.17;;;;;;;;;;5033625;28;20227;-57
2022/10/19 09:31:30;;;;;;;1.30;1.20;;;;;;;;;;5028032;28;20274;-56
2022/10/19 09:34:04;;;;;;;1.20;1.10;;;;;;;;;;5027095;28;20196;-53
2022/10/19 09:36:38;;;;;;;1.20;1.10;;;;;;;;;;5015936;28;20286;-54
2022/10/19 09:39:16;;;;;;;1.60;1.50;;;;;;;;;;5026578;28;20241;-53
2022/10/19 09:41:44;;;;;;;1.23;1.08;;;;;;;;;;5030831;28;20211;-54
2022/10/19 09:44:11;;;;;;;1.40;1.30;;;;;;;;;;5014217;28;20752;-53
2022/10/19 09:46:44;;;;;;;1.30;1.20;;;;;;;;;;5033040;28;20318;-53
2022/10/19 09:49:15;;;;;;;1.73;1.40;;;;;;;;;;5010593;28;20192;-52
2022/10/19 09:51:51;;;;;;;1.20;1.02;;;;;;;;;;5031678;28;20306;-52
2022/10/19 09:54:37;;;;;;;1.30;1.20;;;;;;;;;;5027191;28;20390;-53
2022/10/19 09:57:04;;;;;;;1.60;1.23;;;;;;;;;;5032276;28;20219;-55
2022/10/19 09:59:35;;;;;;;1.42;1.27;;;;;;;;;;5029220;28;20709;-55
2022/10/19 10:02:13;;;;;;;1.42;1.33;;;;;;;;;;5014920;28;20250;-54
2022/10/19 10:04:39;;;;;;;1.40;1.30;;;;;;;;;;5032621;28;20773;-56
2022/10/19 10:07:13;;;;;;;1.50;1.35;;;;;;;;;;5032822;28;20322;-55
2022/10/19 10:09:43;;;;;;;1.65;1.30;;;;;;;;;;5013445;28;20206;-56
2022/10/19 10:12:12;;;;;;;2.22;1.65;;;;;;;;;;5032352;28;20310;-53
2022/10/19 10:14:39;;;;;;;1.30;1.20;;;;;;;;;;5014371;28;20278;-54
2022/10/19 10:17:18;;;;;;;1.40;1.25;;;;;;;;;;5013886;28;20282;-56
2022/10/19 10:20:19;;;;;;;1.27;1.17;;;;;;;;;;5014922;28;20215;-55
2022/10/19 10:23:03;;;;;;;1.33;1.20;;;;;;;;;;5002211;28;20218;-53
2022/10/19 10:25:35;;;;;;;1.20;1.10;;;;;;;;;;5027330;28;20200;-54
2022/10/19 10:28:05;;;;;;;2.03;1.02;;;;;;;;;;5013075;28;20286;-54
2022/10/19 10:30:36;;;;;;;1.60;1.25;;;;;;;;;;5013181;28;20203;-55
2022/10/19 10:33:02;;;;;;;1.50;1.20;;;;;;;;;;5031922;28;20216;-51
2022/10/19 10:35:52;;;;;;;1.63;1.23;;;;;;;;;;5026735;28;20207;-54
2022/10/19 10:38:25;;;;;;;1.60;1.38;;;;;;;;;;5026591;28;20230;-53
2022/10/19 10:41:16;;;;;;;1.25;1.08;;;;;;;;;;5014593;28;20230;-52
2022/10/19 10:43:58;;;;;;;1.40;1.27;;;;;;;;;;5031220;28;20192;-56
2022/10/19 10:46:35;;;;;;;2.25;1.60;;;;;;;;;;5028180;28;20198;-55
2022/10/19 10:49:03;;;;;;;1.45;1.30;;;;;;;;;;5012303;28;20620;-55
2022/10/19 10:51:35;;;;;;;1.63;1.50;;;;;;;;;;5031052;28;20283;-56
2022/10/19 10:54:16;;;;;;;1.48;1.20;;;;;;;;;;5030540;28;20286;-56
2022/10/19 10:56:43;;;;;;;2.33;1.60;;;;;;;;;;5014509;28;20234;-55
2022/10/19 10:59:14;;;;;;;1.98;1.25;;;;;;;;;;5013870;28;20223;-55
2022/10/19 11:01:44;;;;;;;1.80;1.70;;;;;;;;;;5030049;28;20250;-56
2022/10/19 11:04:14;;;;;;;2.08;1.50;;;;;;;;;;5013897;28;20204;-55
2022/10/19 11:06:43;;;;;;;1.33;1.23;;;;;;;;;;5027955;28;20279;-55
2022/10/19 11:09:31;;;;;;;1.35;1.20;;;;;;;;;;5014004;28;20219;-56
2022/10/19 11:12:01;;;;;;;1.40;1.27;;;;;;;;;;5025295;28;20618;-53
2022/10/19 11:15:03;;;;;;;1.55;1.45;;;;;;;;;;5013999;28;20353;-52
2022/10/19 11:17:31;;;;;;;1.52;1.40;;;;;;;;;;4950697;28;20288;-53
2022/10/19 11:19:59;;;;;;;2.53;1.60;;;;;;;;;;4994224;28;20242;-57
2022/10/19 11:22:45;;;;;;;3.55;2.03;;;;;;;;;;5030156;28;20274;-54
2022/10/19 11:25:37;;;;;;;1.40;1.23;;;;;;;;;;5031190;28;20290;-54
2022/10/19 11:28:13;;;;;;;1.17;1.08;;;;;;;;;;5013735;28;20375;-54
2022/10/19 11:30:50;;;;;;;2.88;1.80;;;;;;;;;;5027844;28;20286;-54
2022/10/19 11:33:37;;;;;;;1.10;1.00;;;;;;;;;;5008041;28;20301;-53
2022/10/19 11:36:16;;;;;;;1.20;1.10;;;;;;;;;;5013491;28;20261;-53
2022/10/19 11:38:48;;;;;;;2.00;1.45;;;;;;;;;;5011699;28;20282;-53
2022/10/19 11:41:25;;;;;;;3.42;1.92;;;;;;;;;;5024948;28;20306;-59
2022/10/19 11:44:29;;;;;;;1.38;1.27;;;;;;;;;;5029819;28;20234;-57
2022/10/19 11:47:16;;;;;;;1.30;1.20;;;;;;;;;;5027797;28;20290;-53
2022/10/19 11:49:52;;;;;;;2.10;1.55;;;;;;;;;;5031149;28;20275;-56
2022/10/19 11:52:36;;;;;;;1.52;1.27;;;;;;;;;;5024657;28;20769;-53
2022/10/19 11:55:21;;;;;;;1.55;1.45;;;;;;;;;;5027390;28;20195;-55
2022/10/19 11:58:06;;;;;;;1.85;1.50;;;;;;;;;;5028904;28;20667;-54
2022/10/19 12:00:43;;;;;;;1.52;1.33;;;;;;;;;;5030783;28;20225;-53
2022/10/19 12:03:21;;;;;;;2.00;1.67;;;;;;;;;;5025752;28;20310;-52
2022/10/19 12:06:08;;;;;;;2.03;1.55;;;;;;;;;;5013932;28;20285;-54
2022/10/19 12:08:55;;;;;;;2.33;1.67;;;;;;;;;;5027686;28;20695;-51
2022/10/19 12:11:40;;;;;;;2.63;1.58;;;;;;;;;;5007332;28;20221;-53
2022/10/19 12:14:35;;;;;;;3.47;2.58;;;;;;;;;;5030106;28;20282;-53
2022/10/19 12:17:28;;;;;;;1.83;1.50;;;;;;;;;;5013184;28;20238;-53
2022/10/19 12:19:59;;;;;;;2.53;1.80;;;;;;;;;;5024087;28;20219;-52
2022/10/19 12:22:28;;;;;;;2.35;1.98;;;;;;;;;;5030217;28;20778;-52
2022/10/19 12:24:57;;;;;;;1.40;1.25;;;;;;;;;;5012799;28;20203;-54
2022/10/19 12:27:31;;;;;;;2.65;1.77;;;;;;;;;;5025857;28;20282;-51
2022/10/19 12:30:12;;;;;;;2.25;1.77;;;;;;;;;;5011997;28;20598;-53
2022/10/19 12:33:02;;;;;;;2.40;1.80;;;;;;;;;;5026941;28;20333;-54
2022/10/19 12:36:06;;;;;;;2.33;1.75;;;;;;;;;;5002804;28;20556;-52
2022/10/19 12:38:38;;;;;;;1.85;1.60;;;;;;;;;;5030443;28;20222;-51
2022/10/19 12:41:19;;;;;;;2.15;1.67;;;;;;;;;;5029866;28;20215;-53
2022/10/19 12:44:16;;;;;;;1.30;1.20;;;;;;;;;;5011385;28;20322;-52
2022/10/19 12:46:46;;;;;;;1.73;1.30;;;;;;;;;;5026857;28;20203;-51
2022/10/19 12:49:25;;;;;;;1.88;1.60;;;;;;;;;;5007923;28;20196;-51
2022/10/19 12:51:52;;;;;;;2.03;1.77;;;;;;;;;;5024452;28;20302;-55
2022/10/19 12:54:33;;;;;;;1.63;1.52;;;;;;;;;;5013813;28;20282;-55
2022/10/19 12:57:00;;;;;;;1.95;1.58;;;;;;;;;;5033653;28;20679;-55
2022/10/19 12:59:34;;;;;;;3.50;2.38;;;;;;;;;;5032398;28;20291;-52
2022/10/19 13:02:04;;;;;;;1.30;1.10;;;;;;;;;;5014215;28;20313;-54
2022/10/19 13:04:33;;;;;;;3.70;1.90;;;;;;;;;;5032994;28;20318;-51
2022/10/19 13:07:02;;;;;;;2.30;1.80;;;;;;;;;;5016121;28;20274;-54
2022/10/19 13:09:35;;;;;;;2.70;1.58;;;;;;;;;;5015159;28;20723;-52
2022/10/19 13:12:17;;;;;;;1.60;1.50;;;;;;;;;;5015638;28;20290;-53
2022/10/19 13:14:58;;;;;;;2.45;1.65;;;;;;;;;;5033288;28;20199;-52
2022/10/19 13:17:33;;;;;;;2.83;2.03;;;;;;;;;;5016001;28;20699;-52
2022/10/19 13:20:12;;;;;;;1.98;1.73;;;;;;;;;;5027909;28;20195;-52
2022/10/19 13:22:39;;;;;;;2.97;1.75;;;;;;;;;;5031572;28;20699;-52
2022/10/19 13:25:14;;;;;;;1.77;1.50;;;;;;;;;;5033210;28;20198;-54
2022/10/19 13:27:42;;;;;;;2.40;1.80;;;;;;;;;;5032091;28;20231;-55
2022/10/19 13:30:47;;;;;;;2.92;2.15;;;;;;;;;;5015700;28;20234;-52
2022/10/19 13:33:31;;;;;;;2.67;2.13;;;;;;;;;;4946152;28;20302;-54
2022/10/19 13:35:58;;;;;;;2.35;1.70;;;;;;;;;;4950201;28;20226;-53
2022/10/19 13:38:34;;;;;;;2.70;1.83;;;;;;;;;;4999343;28;20686;-51
2022/10/19 13:41:24;;;;;;;1.70;1.42;;;;;;;;;;5031975;28;20267;-55
2022/10/19 13:44:10;;;;;;;1.38;1.27;;;;;;;;;;5029755;28;20200;-51
2022/10/19 13:46:40;;;;;;;1.45;1.35;;;;;;;;;;5033058;28;20734;-52
2022/10/19 13:49:22;;;;;;;1.70;1.23;;;;;;;;;;5033024;28;20228;-56
2022/10/19 13:52:26;;;;;;;1.40;1.30;;;;;;;;;;5012479;28;20705;-52
2022/10/19 13:55:01;;;;;;;1.90;1.52;;;;;;;;;;5018509;28;20290;-55
2022/10/19 13:57:46;;;;;;;2.40;1.80;;;;;;;;;;5033010;28;20278;-52
2022/10/19 14:00:20;;;;;;;2.20;1.80;;;;;;;;;;5027558;28;20212;-51
2022/10/19 14:03:18;;;;;;;1.88;1.52;;;;;;;;;;5013841;28;20781;-53
2022/10/19 14:06:13;;;;;;;1.50;1.33;;;;;;;;;;5029786;28;20257;-51
2022/10/19 14:08:53;;;;;;;1.75;1.45;;;;;;;;;;5017430;28;20622;-51
2022/10/19 14:11:25;;;;;;;3.30;1.80;;;;;;;;;;5007931;28;20298;-51
2022/10/19 14:14:10;;;;;;;1.95;1.70;;;;;;;;;;5014919;28;20283;-53
2022/10/19 14:16:54;;;;;;;1.50;1.40;;;;;;;;;;5032585;28;20294;-51
2022/10/19 14:19:31;;;;;;;1.70;1.60;;;;;;;;;;5023059;28;20410;-52
2022/10/19 14:22:00;;;;;;;2.05;1.50;;;;;;;;;;5031746;28;20306;-53
2022/10/19 14:24:28;;;;;;;1.35;1.23;;;;;;;;;;5014919;28;20291;-54
2022/10/19 14:26:54;;;;;;;2.45;1.90;;;;;;;;;;5032234;28;20279;-55
2022/10/19 14:29:21;;;;;;;3.38;1.70;;;;;;;;;;5029144;28;20282;-56
2022/10/19 14:31:47;;;;;;;3.17;2.25;;;;;;;;;;5031662;28;20306;-58
2022/10/19 14:34:15;;;;;;;2.67;2.33;;;;;;;;;;5032438;28;20286;-53
2022/10/19 14:36:46;;;;;;;2.10;1.60;;;;;;;;;;5029109;28;20288;-51
2022/10/19 14:39:30;;;;;;;2.35;1.60;;;;;;;;;;5014542;28;20282;-52
2022/10/19 14:42:02;;;;;;;1.70;1.50;;;;;;;;;;5032006;28;20318;-54
2022/10/19 14:44:37;;;;;;;1.88;1.30;;;;;;;;;;5032221;28;20642;-52
2022/10/19 14:47:19;;;;;;;1.50;1.40;;;;;;;;;;5012897;28;20685;-54
2022/10/19 14:49:46;;;;;;;1.75;1.42;;;;;;;;;;5032005;28;20192;-56
2022/10/19 14:52:20;;;;;;;1.58;1.38;;;;;;;;;;5012522;28;20299;-52
2022/10/19 14:54:49;;;;;;;1.48;1.38;;;;;;;;;;5013689;28;20710;-54
2022/10/19 14:57:19;;;;;;;1.77;1.52;;;;;;;;;;5014373;28;20286;-57
2022/10/19 14:59:47;;;;;;;2.38;2.05;;;;;;;;;;5025893;28;20664;-54
2022/10/19 15:02:18;;;;;;;1.73;1.63;;;;;;;;;;5024047;28;20322;-56
2022/10/19 15:04:44;;;;;;;2.97;2.10;;;;;;;;;;5029234;28;20294;-52
2022/10/19 15:07:15;;;;;;;4.68;2.78;;;;;;;;;;5013737;28;20234;-54
2022/10/19 15:09:48;;;;;;;2.70;2.33;;;;;;;;;;5012212;28;20283;-55
2022/10/19 15:12:17;;;;;;;3.53;2.53;;;;;;;;;;5005192;28;20238;-54
2022/10/19 15:14:44;;;;;;;2.67;2.22;;;;;;;;;;5015087;28;20206;-54